Kenema Airport

Jump to: basic info | weather | comments

Related pages: nearby airports | nearby navaids | notams | map

Basic information (top)

Codes: KEN GFKE
Location: lon 7.891290, lat -11.176600, elev 485 ft / 148 m msl
Status: medium_airport
Scheduled airline service: yes
Links: Wikipedia Mobile

Weather (top)

Current conditions for Roberts International Airport 111nm (205km) SSE (rec'd 2014/12/22 04:30Z):

GLRB 220430Z 00000KT 8000 FEW011 24/23 Q1011 RMK BRVC

Airport forecast for Roberts International Airport 111nm (205km) SSE (rec'd 2014/12/21 00:51Z):

TAF GLRB 212200Z 2200/2306 21008KT 9999 BKN018 
      TEMPO 2201/2205 VRB03KT 9000 FEW012 
      BECMG 2206/2208 04004KT 0800 FG BKN008 
     FM221000 21008KT 9999 
      TEMPO 2215/2219 18006KT 8000

Latest comments (top)

No comments yet for Kenema Airport

More... (top)

See also NOTAMs and nearby airports and navaids, or visit the Kenema Airport page at the main OurAirports website..